Grand Duke — 3ECP7 — position and weather

sailwx.info

Track history (hours):
 
Tides and Currents Weather Stations Pressure Air Temp Water Temp Dewpoint Dewpoint Depression Visibility Wind Speed Wind Dir Waves Ship Positions

Grand Duke

Last reported at 2018-Jun-11 10:39 UTC. Time now 2018-Jun-18 01:25 UTC.
Position S 37°50' E 144°54'.

Length 199 m; draft 8.2 m.

Type: Cargo ship. MMSI: 371384000.

Date/timePositionNaut miles runAvg speedWind from/ knotsBaromVisibWave heightAir tempDewpointWater temp
2018-Jun-11 10:39S 37°50' E 144°54'0 0.0
2018-Jun-11 10:18S 37°50' E 144°54'2 0.2
2018-Jun-11 01:31S 37°52' E 144°56'0 8.7
2018-Jun-11 01:30S 37°52' E 144°56'18211.2
2018-Jun-10 09:14S 38°30' E 148°42'818.1
2018-Jun-10 08:48S 38°25' E 148°50'618.1
2018-Jun-10 08:29S 38°22' E 148°56'817.8
2018-Jun-10 08:00S 38°17' E 149°05'1018.5
2018-Jun-10 07:29S 38°11' E 149°15'264 5.2
2018-Jun-08 04:43S 34°07' E 151°20'417.1
2018-Jun-08 04:31S 34°05' E 151°24'917.3
2018-Jun-08 04:01S 33°59' E 151°31'918.0
2018-Jun-08 03:31S 33°51' E 151°36'918.7
2018-Jun-08 03:01S 33°43' E 151°43'918.7
2018-Jun-08 02:30S 33°36' E 151°49'2517.8
2018-Jun-08 01:08S 33°15' E 152°05'417.5
2018-Jun-08 00:54S 33°11' E 152°07'717.4
2018-Jun-08 00:31S 33°06' E 152°12'917.1
2018-Jun-08 00:00S 32°59' E 152°17'816.9
2018-Jun-07 23:31S 32°51' E 152°22'917.1
2018-Jun-07 23:01S 32°44' E 152°28'917.2
2018-Jun-07 22:31S 32°37' E 152°33'816.9
2018-Jun-07 22:01S 32°30' E 152°39'816.8
2018-Jun-07 21:30S 32°22' E 152°42'1017.1
2018-Jun-07 20:55S 32°13' E 152°47'1018.0
2018-Jun-07 20:22S 32°03' E 152°51'23916.6
2018-Jun-07 05:58S 28°10' E 153°48'1015.1
2018-Jun-07 05:17S 27°59' E 153°47'514.9
2018-Jun-07 04:59S 27°55' E 153°46'714.9
2018-Jun-07 04:30S 27°48' E 153°46'815.3
2018-Jun-07 04:00S 27°40' E 153°45'714.8
2018-Jun-07 03:31S 27°33' E 153°45'814.9
2018-Jun-07 02:57S 27°24' E 153°43'614.8
2018-Jun-07 02:30S 27°18' E 153°41'814.7
2018-Jun-07 01:57S 27°10' E 153°38'613.9
2018-Jun-07 01:30S 27°05' E 153°36'714.2
2018-Jun-07 00:59S 26°58' E 153°33'715.0
2018-Jun-07 00:30S 26°53' E 153°27'815.3
2018-Jun-07 00:00S 26°49' E 153°20'714.9
2018-Jun-06 23:30S 26°44' E 153°13'3 4.3
2018-Jun-06 22:54S 26°44' E 153°10'512.8
2018-Jun-06 22:30S 26°49' E 153°10'714.7
2018-Jun-06 22:00S 26°56' E 153°12'816.6
2018-Jun-06 21:30S 27°03' E 153°17'816.3
2018-Jun-06 21:00S 27°11' E 153°21'815.7
2018-Jun-06 20:30S 27°17' E 153°15'713.6
2018-Jun-06 20:01S 27°22' E 153°10'1 2.0
2018-Jun-06 19:30S 27°23' E 153°10'0 0.0
2018-Jun-06 19:00S 27°23' E 153°10'0 0.0
2018-Jun-06 18:30S 27°23' E 153°10'0 0.0
2018-Jun-06 18:00S 27°23' E 153°10'0 0.0
2018-Jun-06 17:30S 27°23' E 153°10'0 0.0
2018-Jun-06 17:00S 27°23' E 153°10'0 0.0
2018-Jun-06 16:30S 27°23' E 153°10'0 0.0
2018-Jun-06 16:00S 27°23' E 153°10'0 0.0
2018-Jun-06 15:30S 27°23' E 153°10'0 0.0
2018-Jun-06 15:00S 27°23' E 153°10'0 0.0
2018-Jun-06 14:30S 27°23' E 153°10'0 0.0
2018-Jun-06 13:57S 27°23' E 153°10'0 0.0
2018-Jun-06 13:30S 27°23' E 153°10'0 0.0
2018-Jun-06 13:00S 27°23' E 153°10'0 0.0
2018-Jun-06 12:30S 27°23' E 153°10'0 0.0
2018-Jun-06 12:00S 27°23' E 153°10'0 0.0
2018-Jun-06 11:30S 27°23' E 153°10'0 0.0
2018-Jun-06 11:00S 27°23' E 153°10'0 0.0
2018-Jun-06 10:30S 27°23' E 153°10'0 0.0
2018-Jun-06 10:00S 27°23' E 153°10'0 0.0
2018-Jun-06 09:30S 27°23' E 153°10'0 0.0
2018-Jun-06 08:54S 27°23' E 153°10'0 0.0
2018-Jun-06 08:30S 27°23' E 153°10'0 0.0
2018-Jun-06 08:00S 27°23' E 153°10'0 0.0
2018-Jun-06 07:30S 27°23' E 153°10'0 0.0
2018-Jun-06 07:00S 27°23' E 153°10'0 0.0
2018-Jun-06 06:30S 27°23' E 153°10'0 0.0
2018-Jun-06 06:00S 27°23' E 153°10'0 0.0
2018-Jun-06 05:30S 27°23' E 153°10'0 0.0
2018-Jun-06 05:00S 27°23' E 153°10'0 0.0
2018-Jun-06 04:30S 27°23' E 153°10'0 0.0
2018-Jun-06 04:00S 27°23' E 153°10'0 0.0
2018-Jun-06 03:30S 27°23' E 153°10'0 0.0
2018-Jun-06 03:00S 27°23' E 153°10'0 0.0
2018-Jun-06 02:30S 27°23' E 153°10'0 0.0
2018-Jun-06 01:57S 27°23' E 153°10'0 0.0
2018-Jun-06 01:30S 27°23' E 153°10'0 0.0
2018-Jun-06 01:00S 27°23' E 153°10'0 0.0
2018-Jun-06 00:30S 27°23' E 153°10'0 0.0
2018-Jun-06 00:00S 27°23' E 153°10'0 0.1
2018-Jun-05 23:30S 27°23' E 153°10'2 3.3
2018-Jun-05 23:00S 27°21' E 153°11'510.2
2018-Jun-05 22:31S 27°17' E 153°14'814.7
2018-Jun-05 22:00S 27°12' E 153°20'714.6
2018-Jun-05 21:31S 27°05' E 153°19'714.5
2018-Jun-05 21:01S 26°59' E 153°14'815.8
2018-Jun-05 20:31S 26°52' E 153°10'612.8
2018-Jun-05 20:00S 26°46' E 153°11'4 8.7
2018-Jun-05 19:30S 26°42' E 153°11'3 7.1
2018-Jun-05 19:01S 26°40' E 153°15'  
Track history (hours):
 
Tides and Currents Weather Stations Pressure Air Temp Water Temp Dewpoint Dewpoint Depression Visibility Wind Speed Wind Dir Waves Ship Positions

Grand Duke

Last reported at 2018-Jun-11 10:39 UTC. Time now 2018-Jun-18 01:25 UTC.
Position S 37°50' E 144°54'.

Length 199 m; draft 8.2 m.

Type: Cargo ship. MMSI: 371384000.

Date/timePositionNaut miles runAvg speedWind from/ knotsBaromVisibWave heightAir tempDewpointWater temp
2018-Jun-11 10:39S 37°50' E 144°54'0 0.0
2018-Jun-11 10:18S 37°50' E 144°54'2 0.2
2018-Jun-11 01:31S 37°52' E 144°56'0 8.7
2018-Jun-11 01:30S 37°52' E 144°56'18211.2
2018-Jun-10 09:14S 38°30' E 148°42'818.1
2018-Jun-10 08:48S 38°25' E 148°50'618.1
2018-Jun-10 08:29S 38°22' E 148°56'817.8
2018-Jun-10 08:00S 38°17' E 149°05'1018.5
2018-Jun-10 07:29S 38°11' E 149°15'264 5.2
2018-Jun-08 04:43S 34°07' E 151°20'417.1
2018-Jun-08 04:31S 34°05' E 151°24'917.3
2018-Jun-08 04:01S 33°59' E 151°31'918.0
2018-Jun-08 03:31S 33°51' E 151°36'918.7
2018-Jun-08 03:01S 33°43' E 151°43'918.7
2018-Jun-08 02:30S 33°36' E 151°49'2517.8
2018-Jun-08 01:08S 33°15' E 152°05'417.5
2018-Jun-08 00:54S 33°11' E 152°07'717.4
2018-Jun-08 00:31S 33°06' E 152°12'917.1
2018-Jun-08 00:00S 32°59' E 152°17'816.9
2018-Jun-07 23:31S 32°51' E 152°22'917.1
2018-Jun-07 23:01S 32°44' E 152°28'917.2
2018-Jun-07 22:31S 32°37' E 152°33'816.9
2018-Jun-07 22:01S 32°30' E 152°39'816.8
2018-Jun-07 21:30S 32°22' E 152°42'1017.1
2018-Jun-07 20:55S 32°13' E 152°47'1018.0
2018-Jun-07 20:22S 32°03' E 152°51'23916.6
2018-Jun-07 05:58S 28°10' E 153°48'1015.1
2018-Jun-07 05:17S 27°59' E 153°47'514.9
2018-Jun-07 04:59S 27°55' E 153°46'714.9
2018-Jun-07 04:30S 27°48' E 153°46'815.3
2018-Jun-07 04:00S 27°40' E 153°45'714.8
2018-Jun-07 03:31S 27°33' E 153°45'814.9
2018-Jun-07 02:57S 27°24' E 153°43'614.8
2018-Jun-07 02:30S 27°18' E 153°41'814.7
2018-Jun-07 01:57S 27°10' E 153°38'613.9
2018-Jun-07 01:30S 27°05' E 153°36'714.2
2018-Jun-07 00:59S 26°58' E 153°33'715.0
2018-Jun-07 00:30S 26°53' E 153°27'815.3
2018-Jun-07 00:00S 26°49' E 153°20'714.9
2018-Jun-06 23:30S 26°44' E 153°13'3 4.3
2018-Jun-06 22:54S 26°44' E 153°10'512.8
2018-Jun-06 22:30S 26°49' E 153°10'714.7
2018-Jun-06 22:00S 26°56' E 153°12'816.6
2018-Jun-06 21:30S 27°03' E 153°17'816.3
2018-Jun-06 21:00S 27°11' E 153°21'815.7
2018-Jun-06 20:30S 27°17' E 153°15'713.6
2018-Jun-06 20:01S 27°22' E 153°10'1 2.0
2018-Jun-06 19:30S 27°23' E 153°10'0 0.0
2018-Jun-06 19:00S 27°23' E 153°10'0 0.0
2018-Jun-06 18:30S 27°23' E 153°10'0 0.0
2018-Jun-06 18:00S 27°23' E 153°10'0 0.0
2018-Jun-06 17:30S 27°23' E 153°10'0 0.0
2018-Jun-06 17:00S 27°23' E 153°10'0 0.0
2018-Jun-06 16:30S 27°23' E 153°10'0 0.0
2018-Jun-06 16:00S 27°23' E 153°10'0 0.0
2018-Jun-06 15:30S 27°23' E 153°10'0 0.0
2018-Jun-06 15:00S 27°23' E 153°10'0 0.0
2018-Jun-06 14:30S 27°23' E 153°10'0 0.0
2018-Jun-06 13:57S 27°23' E 153°10'0 0.0
2018-Jun-06 13:30S 27°23' E 153°10'0 0.0
2018-Jun-06 13:00S 27°23' E 153°10'0 0.0
2018-Jun-06 12:30S 27°23' E 153°10'0 0.0
2018-Jun-06 12:00S 27°23' E 153°10'0 0.0
2018-Jun-06 11:30S 27°23' E 153°10'0 0.0
2018-Jun-06 11:00S 27°23' E 153°10'0 0.0
2018-Jun-06 10:30S 27°23' E 153°10'0 0.0
2018-Jun-06 10:00S 27°23' E 153°10'0 0.0
2018-Jun-06 09:30S 27°23' E 153°10'0 0.0
2018-Jun-06 08:54S 27°23' E 153°10'0 0.0
2018-Jun-06 08:30S 27°23' E 153°10'0 0.0
2018-Jun-06 08:00S 27°23' E 153°10'0 0.0
2018-Jun-06 07:30S 27°23' E 153°10'0 0.0
2018-Jun-06 07:00S 27°23' E 153°10'0 0.0
2018-Jun-06 06:30S 27°23' E 153°10'0 0.0
2018-Jun-06 06:00S 27°23' E 153°10'0 0.0
2018-Jun-06 05:30S 27°23' E 153°10'0 0.0
2018-Jun-06 05:00S 27°23' E 153°10'0 0.0
2018-Jun-06 04:30S 27°23' E 153°10'0 0.0
2018-Jun-06 04:00S 27°23' E 153°10'0 0.0
2018-Jun-06 03:30S 27°23' E 153°10'0 0.0
2018-Jun-06 03:00S 27°23' E 153°10'0 0.0
2018-Jun-06 02:30S 27°23' E 153°10'0 0.0
2018-Jun-06 01:57S 27°23' E 153°10'0 0.0
2018-Jun-06 01:30S 27°23' E 153°10'0 0.0
2018-Jun-06 01:00S 27°23' E 153°10'0 0.0
2018-Jun-06 00:30S 27°23' E 153°10'0 0.0
2018-Jun-06 00:00S 27°23' E 153°10'0 0.1
2018-Jun-05 23:30S 27°23' E 153°10'2 3.3
2018-Jun-05 23:00S 27°21' E 153°11'510.2
2018-Jun-05 22:31S 27°17' E 153°14'814.7
2018-Jun-05 22:00S 27°12' E 153°20'714.6
2018-Jun-05 21:31S 27°05' E 153°19'714.5
2018-Jun-05 21:01S 26°59' E 153°14'815.8
2018-Jun-05 20:31S 26°52' E 153°10'612.8
2018-Jun-05 20:00S 26°46' E 153°11'4 8.7
2018-Jun-05 19:30S 26°42' E 153°11'3 7.1
2018-Jun-05 19:01S 26°40' E 153°15'  

Dump ship's entire track history